KPOE

Details ICAO KPOE (POE)
Name POLK AAF
Region United States
Timezone America/Chicago (UTC-6.0)
Plans Departing 0
Arriving 3
Stats Elevation 330 ft / 101 m (AMSL)
Location 31.044647° -93.191574°
Runways 2
Magnetic Variation 1.096° E
Sunrise 2017-12-10 13:01:51 UTC / 2017-12-10 07:01:51 Local
Sunset 2017-12-10 23:12:26 UTC / 2017-12-10 17:12:26 Local
Advertisement - Login to hide

Runways

ID Width Length Bearing (true) Bearing (mag) Surface Threshold Offset Overrun Length
15 125 ft / 38 m 4,119 ft / 1,256 m 160.52° 159.42° Asphalt 197 ft / 60 m 0 ft / 0 m
16 96 ft / 29 m 3,930 ft / 1,198 m 160.53° 159.43° Asphalt 0 ft / 0 m 203 ft / 62 m
33 125 ft / 38 m 4,119 ft / 1,256 m 340.52° 339.42° Asphalt 0 ft / 0 m 800 ft / 244 m
34 96 ft / 29 m 3,930 ft / 1,198 m 340.53° 339.43° Asphalt 0 ft / 0 m 0 ft / 0 m

Map

Weather


0- 5 10 15 20 25 30 35+ Temperature / ° C

Clouds and Precipitation
Forecast for 2017-12-11 00:00 UTC. Updated an hour ago

Ground ~20,000 ft ~40,000 ft Winds

METAR

KPOE 102358Z AUTO 00000KT 9SM CLR 09/04 A3032 RMK AO2 SLP272 T00930038 10162 20090 55001

TAF

TAF KPOE 110000Z 1100/1206 VRB06KT 9999 SKC QNH3013INS BECMG 1203/1204 22006KT 9999 SKC WS020/27033KT QNH3012INS TX16/1121Z TN04/1112Z

Frequencies

Recorded 134.85 MHz ATIS
Tower 119.00 MHz TWR
Ground 121.80 MHz GND
Approach 123.70 MHz APP/DEP
Warning: Do not use this data for real-world aviation or navigation. No guarantee of current accuracy is given.